createdAt,value
2022-08-17T00:00:34.588Z,2.97
2022-08-17T00:03:06.175Z,4.03
2022-08-17T00:05:44.388Z,3.72
2022-08-17T00:08:14.795Z,2.88
2022-08-17T00:10:44.444Z,3.47
2022-08-17T00:13:17.306Z,3.63
2022-08-17T00:15:46.679Z,3.80
2022-08-17T00:19:02.047Z,4.10
2022-08-17T00:21:10.569Z,3.42
2022-08-17T00:23:44.351Z,3.15
2022-08-17T00:26:43.489Z,3.00
2022-08-17T00:29:07.634Z,3.30
2022-08-17T00:31:36.290Z,3.30
2022-08-17T00:34:06.451Z,3.20
2022-08-17T00:36:33.973Z,3.75
2022-08-17T00:39:01.641Z,2.90
2022-08-17T00:41:29.541Z,3.30
2022-08-17T00:44:05.158Z,4.20
2022-08-17T00:46:41.028Z,3.63
2022-08-17T00:49:11.569Z,3.85
2022-08-17T00:51:53.026Z,3.42
2022-08-17T00:54:42.057Z,3.10
2022-08-17T00:57:17.469Z,3.38
2022-08-17T01:00:02.032Z,4.00
2022-08-17T01:02:41.676Z,3.83
2022-08-17T01:05:18.590Z,3.92
2022-08-17T01:07:50.921Z,3.92
2022-08-17T01:10:59.577Z,3.13
2022-08-17T01:13:15.084Z,3.30
2022-08-17T01:15:53.154Z,3.25
2022-08-17T01:18:21.426Z,3.10
2022-08-17T01:20:51.863Z,2.65
2022-08-17T01:23:22.561Z,3.50
2022-08-17T01:25:54.695Z,3.90
2022-08-17T01:28:33.418Z,3.95
2022-08-17T01:31:14.138Z,3.10
2022-08-17T01:33:42.366Z,3.65
2022-08-17T01:36:10.660Z,3.28
2022-08-17T01:38:39.623Z,3.20
2022-08-17T01:41:12.520Z,3.15
2022-08-17T01:44:02.685Z,3.67
2022-08-17T01:46:34.812Z,3.42
2022-08-17T01:49:08.660Z,3.58
2022-08-17T01:51:37.063Z,3.50
2022-08-17T01:54:10.206Z,3.60
2022-08-17T01:56:41.897Z,3.40
2022-08-17T01:59:11.371Z,3.60
2022-08-17T02:01:39.563Z,3.53
2022-08-17T02:04:08.507Z,4.22
2022-08-17T02:06:44.928Z,3.80
2022-08-17T02:09:25.333Z,3.00
2022-08-17T02:11:59.940Z,3.88
2022-08-17T02:14:47.461Z,3.47
2022-08-17T02:17:15.506Z,4.00
2022-08-17T02:19:43.664Z,3.50
2022-08-17T02:22:11.983Z,3.47
2022-08-17T02:25:00.159Z,3.40
2022-08-17T02:27:28.721Z,3.40
2022-08-17T02:29:57.681Z,4.85
2022-08-17T02:32:28.385Z,3.92
2022-08-17T02:34:58.022Z,3.85
2022-08-17T02:37:27.931Z,2.85
2022-08-17T02:39:59.602Z,3.40
2022-08-17T02:42:41.521Z,3.55
2022-08-17T02:45:18.681Z,4.15
2022-08-17T02:47:47.460Z,3.88
2022-08-17T02:50:18.216Z,3.30
2022-08-17T02:52:47.468Z,3.90
2022-08-17T02:55:29.401Z,3.53
2022-08-17T02:57:57.523Z,3.42
2022-08-17T03:00:29.606Z,3.70
2022-08-17T03:02:57.867Z,4.05
2022-08-17T03:05:29.055Z,3.25
2022-08-17T03:07:57.677Z,3.85
2022-08-17T03:10:26.081Z,3.97
2022-08-17T03:12:54.544Z,5.18
2022-08-17T03:15:30.534Z,3.75
2022-08-17T03:17:59.659Z,3.45
2022-08-17T03:20:29.692Z,3.50
2022-08-17T03:23:01.829Z,3.17
2022-08-17T03:25:34.826Z,3.10
2022-08-17T03:28:03.788Z,3.72
2022-08-17T03:30:32.144Z,3.92
2022-08-17T03:33:03.001Z,4.20
2022-08-17T03:35:32.712Z,4.30
2022-08-17T03:38:01.406Z,3.67
2022-08-17T03:40:55.559Z,4.40
2022-08-17T03:43:19.879Z,4.80
2022-08-17T03:46:06.248Z,4.30
2022-08-17T03:49:11.340Z,4.03
2022-08-17T03:52:00.031Z,4.72
2022-08-17T03:54:48.626Z,3.92
2022-08-17T03:57:16.716Z,4.97
2022-08-17T03:59:45.066Z,4.38
2022-08-17T04:02:22.385Z,4.57
2022-08-17T04:04:52.490Z,3.83
2022-08-17T04:07:21.760Z,4.80
2022-08-17T04:09:49.881Z,4.22
2022-08-17T04:12:19.983Z,3.83
2022-08-17T04:14:51.911Z,4.95
2022-08-17T04:17:28.676Z,3.72
2022-08-17T04:19:57.148Z,4.05
2022-08-17T04:22:30.531Z,4.05
2022-08-17T04:25:13.802Z,3.75
2022-08-17T04:27:42.411Z,4.07
2022-08-17T04:30:10.649Z,3.72
2022-08-17T04:33:06.370Z,3.55
2022-08-17T04:35:48.383Z,4.78
2022-08-17T04:38:20.263Z,5.30
2022-08-17T04:41:07.220Z,4.63
2022-08-17T04:43:36.985Z,4.72
2022-08-17T04:46:08.801Z,5.07
2022-08-17T04:48:40.474Z,6.45
2022-08-17T04:51:12.415Z,5.47
2022-08-17T04:53:42.840Z,5.57
2022-08-17T04:56:16.015Z,6.20
2022-08-17T04:58:47.857Z,6.20
2022-08-17T05:01:16.696Z,6.57
2022-08-17T05:03:56.327Z,6.88
2022-08-17T05:06:24.528Z,7.50
2022-08-17T05:08:52.843Z,6.72
2022-08-17T05:11:21.173Z,7.35
2022-08-17T05:13:52.682Z,8.10
2022-08-17T05:16:22.391Z,6.65
2022-08-17T05:18:50.155Z,7.65
2022-08-17T05:21:18.528Z,6.97
2022-08-17T05:23:47.181Z,7.25
2022-08-17T05:26:26.664Z,6.88
2022-08-17T05:28:59.602Z,6.53
2022-08-17T05:31:29.429Z,7.85
2022-08-17T05:33:58.080Z,8.15
2022-08-17T05:36:43.123Z,6.88
2022-08-17T05:39:15.672Z,6.63
2022-08-17T05:41:48.738Z,7.28
2022-08-17T05:44:16.656Z,6.68
2022-08-17T05:46:51.444Z,6.32
2022-08-17T05:49:27.323Z,7.07
2022-08-17T05:52:04.462Z,7.30
2022-08-17T05:54:58.997Z,7.35
2022-08-17T05:57:39.492Z,6.80
2022-08-17T06:00:33.094Z,7.65
2022-08-17T06:03:29.151Z,6.68
2022-08-17T06:06:21.614Z,6.85
2022-08-17T06:09:01.191Z,6.13
2022-08-17T06:11:47.157Z,6.55
2022-08-17T06:14:42.636Z,6.38
2022-08-17T06:17:15.741Z,6.95
2022-08-17T06:19:54.501Z,6.20
2022-08-17T06:22:27.317Z,8.32
2022-08-17T06:25:02.470Z,6.68
2022-08-17T06:27:46.057Z,6.00
2022-08-17T06:30:59.337Z,6.00
2022-08-17T06:39:12.487Z,6.00
2022-08-17T06:41:46.201Z,5.50
2022-08-17T06:44:50.279Z,4.38
2022-08-17T06:47:56.110Z,4.53
2022-08-17T06:50:31.168Z,5.07
2022-08-17T06:53:31.713Z,4.82
2022-08-17T06:56:05.416Z,4.80
2022-08-17T06:58:35.773Z,5.13
2022-08-17T07:01:15.427Z,3.78
2022-08-17T07:03:55.508Z,4.35
2022-08-17T07:06:53.289Z,4.03
2022-08-17T07:09:29.360Z,3.58
2022-08-17T07:12:05.801Z,3.97
2022-08-17T07:14:37.880Z,3.92
2022-08-17T07:17:13.546Z,5.93
2022-08-17T07:19:45.577Z,4.75
2022-08-17T07:22:30.483Z,5.53
2022-08-17T07:25:20.885Z,19.75
2022-08-17T07:27:54.309Z,7.78
2022-08-17T07:30:31.782Z,3.95
2022-08-17T07:33:20.397Z,5.78
2022-08-17T07:35:50.074Z,4.82
2022-08-17T07:38:26.808Z,3.72
2022-08-17T07:40:57.895Z,4.60
2022-08-17T07:43:34.737Z,4.00
2022-08-17T07:46:35.869Z,4.13
2022-08-17T07:49:05.042Z,4.15
2022-08-17T07:51:37.876Z,5.90
2022-08-17T07:54:22.327Z,3.97
2022-08-17T07:56:51.427Z,3.88
2022-08-17T07:59:26.354Z,4.07
2022-08-17T08:02:03.633Z,3.88
2022-08-17T08:05:06.512Z,4.43
2022-08-17T08:07:42.605Z,4.28
2022-08-17T08:10:29.921Z,5.05
2022-08-17T08:13:14.222Z,4.05
2022-08-17T08:15:53.507Z,3.63
2022-08-17T08:18:53.537Z,4.22
2022-08-17T08:21:47.915Z,3.55
2022-08-17T08:24:31.339Z,3.58
2022-08-17T08:27:12.495Z,3.55
2022-08-17T08:30:10.195Z,2.22
2022-08-17T08:32:42.851Z,2.72
2022-08-17T08:35:26.686Z,2.30
2022-08-17T08:38:01.013Z,2.80
2022-08-17T08:40:40.397Z,2.20
2022-08-17T08:43:40.576Z,3.13
2022-08-17T08:46:15.695Z,2.47
2022-08-17T08:48:57.948Z,5.18
2022-08-17T08:51:41.472Z,2.78
2022-08-17T08:54:39.453Z,3.45
2022-08-17T08:57:33.720Z,2.67
2022-08-17T09:00:16.251Z,2.10
2022-08-17T09:03:05.385Z,2.00
2022-08-17T09:06:37.439Z,1.90
2022-08-17T09:09:21.824Z,2.15
2022-08-17T09:12:08.438Z,1.90
2022-08-17T09:14:47.330Z,1.75
2022-08-17T09:17:18.735Z,1.80
2022-08-17T09:20:06.007Z,1.65
2022-08-17T09:22:41.513Z,1.70
2022-08-17T09:25:14.767Z,2.75
2022-08-17T09:28:03.941Z,1.65
2022-08-17T09:30:46.674Z,1.38
2022-08-17T09:33:22.894Z,1.92
2022-08-17T09:36:02.423Z,1.90
2022-08-17T09:38:44.360Z,1.73
2022-08-17T09:41:49.029Z,1.95
2022-08-17T09:44:36.320Z,1.30
2022-08-17T09:47:14.613Z,1.40
2022-08-17T09:49:49.727Z,1.23
2022-08-17T09:52:29.418Z,1.77
2022-08-17T09:55:00.049Z,1.75
2022-08-17T09:57:59.501Z,1.70
2022-08-17T10:00:36.063Z,1.25
2022-08-17T10:03:21.442Z,1.65
2022-08-17T10:05:56.795Z,1.65
2022-08-17T10:08:37.435Z,1.83
2022-08-17T10:11:08.459Z,1.63
2022-08-17T10:13:53.156Z,1.90
2022-08-17T10:16:30.645Z,2.50
2022-08-17T10:19:28.385Z,1.10
2022-08-17T10:22:35.430Z,1.20
2022-08-17T10:25:33.292Z,1.92
2022-08-17T10:28:20.008Z,1.85
2022-08-17T10:31:16.634Z,1.77
2022-08-17T10:34:10.884Z,1.40
2022-08-17T10:36:47.444Z,3.10
2022-08-17T10:39:19.469Z,2.00
2022-08-17T10:41:50.885Z,1.70
2022-08-17T10:44:41.082Z,2.67
2022-08-17T10:47:11.750Z,1.83
2022-08-17T10:49:54.457Z,2.35
2022-08-17T10:52:27.827Z,2.10
2022-08-17T10:54:56.747Z,2.05
2022-08-17T10:57:32.259Z,1.70
2022-08-17T11:00:11.096Z,2.13
2022-08-17T11:02:47.947Z,2.08
2022-08-17T11:05:28.617Z,2.10
2022-08-17T11:08:22.826Z,2.08
2022-08-17T11:11:12.399Z,1.90
2022-08-17T11:13:52.803Z,2.10
2022-08-17T11:16:47.913Z,2.35
2022-08-17T11:19:51.650Z,1.95
2022-08-17T11:22:44.701Z,2.70
2022-08-17T11:27:53.617Z,2.00
2022-08-17T11:30:49.312Z,2.78
2022-08-17T11:33:29.787Z,2.63
2022-08-17T11:36:04.177Z,2.78
2022-08-17T11:39:04.504Z,2.40
2022-08-17T11:41:53.782Z,3.08
2022-08-17T11:44:46.793Z,2.65
2022-08-17T11:47:53.033Z,2.42
2022-08-17T11:51:12.517Z,3.00
2022-08-17T11:53:40.009Z,2.78
2022-08-17T11:56:49.315Z,2.53
2022-08-17T11:59:42.044Z,2.80
2022-08-17T12:02:32.646Z,2.85
2022-08-17T12:05:21.092Z,2.88
2022-08-17T12:08:21.751Z,3.28
2022-08-17T12:11:03.484Z,3.13
2022-08-17T12:13:39.970Z,3.20
2022-08-17T12:16:10.017Z,2.95
2022-08-17T12:18:39.796Z,3.08
2022-08-17T12:21:38.133Z,2.53
2022-08-17T12:24:33.360Z,2.38
2022-08-17T12:27:04.650Z,3.08
2022-08-17T12:29:35.951Z,2.88
2022-08-17T12:32:08.409Z,3.22
2022-08-17T12:34:40.036Z,3.42
2022-08-17T12:37:16.469Z,3.22
2022-08-17T12:40:03.961Z,2.50
2022-08-17T12:42:37.401Z,2.70
2022-08-17T12:45:26.119Z,3.22
2022-08-17T12:48:10.168Z,3.00
2022-08-17T12:50:40.619Z,3.03
2022-08-17T12:53:31.047Z,2.88
2022-08-17T12:56:00.825Z,2.55
2022-08-17T12:58:32.419Z,3.15
2022-08-17T13:01:11.798Z,2.40
2022-08-17T13:03:52.735Z,3.25
2022-08-17T13:06:33.149Z,2.92
2022-08-17T13:09:36.100Z,2.60
2022-08-17T13:12:08.970Z,2.85
2022-08-17T13:14:36.673Z,2.85
2022-08-17T13:17:09.865Z,3.30
2022-08-17T13:19:49.906Z,2.80
2022-08-17T13:22:22.400Z,2.20
2022-08-17T13:24:56.449Z,2.72
2022-08-17T13:27:27.641Z,2.28
2022-08-17T13:29:59.905Z,2.88
2022-08-17T13:32:31.307Z,2.38
2022-08-17T13:35:14.139Z,2.92
2022-08-17T13:38:06.546Z,2.53
2022-08-17T13:40:38.970Z,2.78
2022-08-17T13:45:40.246Z,2.35
2022-08-17T13:48:12.498Z,2.92
2022-08-17T13:50:49.411Z,2.38
2022-08-17T13:53:21.673Z,2.50
2022-08-17T13:55:55.536Z,2.78
2022-08-17T13:58:27.436Z,3.60
2022-08-17T14:00:56.333Z,2.97
2022-08-17T14:03:24.843Z,2.88
2022-08-17T14:05:52.845Z,2.80
2022-08-17T14:08:20.912Z,2.67
2022-08-17T14:10:58.715Z,3.75
2022-08-17T14:13:26.378Z,3.47
2022-08-17T14:15:56.708Z,3.50
2022-08-17T14:18:35.679Z,3.83
2022-08-17T14:21:12.786Z,2.78
2022-08-17T14:23:40.916Z,2.38
2022-08-17T14:26:11.662Z,2.47
2022-08-17T14:28:45.914Z,3.13
2022-08-17T14:31:24.181Z,3.28
2022-08-17T14:33:52.276Z,3.45
2022-08-17T14:36:19.892Z,3.10
2022-08-17T14:38:47.913Z,2.90
2022-08-17T14:41:20.053Z,2.88
2022-08-17T14:43:52.929Z,3.38
2022-08-17T14:46:20.520Z,2.70
2022-08-17T14:48:52.731Z,2.80
2022-08-17T14:51:23.841Z,3.60
2022-08-17T14:53:52.115Z,3.17
2022-08-17T14:56:19.716Z,2.92
2022-08-17T14:58:47.189Z,2.88
2022-08-17T15:01:15.198Z,3.20
2022-08-17T15:03:43.376Z,3.30
2022-08-17T15:06:14.751Z,3.22
2022-08-17T15:08:44.408Z,2.95
2022-08-17T15:11:14.441Z,2.70
2022-08-17T15:13:52.729Z,3.15
2022-08-17T15:16:20.783Z,3.22
2022-08-17T15:18:49.123Z,3.10
2022-08-17T15:21:18.198Z,2.85
2022-08-17T15:23:46.278Z,3.10
2022-08-17T15:26:14.763Z,3.50
2022-08-17T15:28:42.770Z,3.13
2022-08-17T15:31:10.213Z,2.67
2022-08-17T15:33:38.696Z,2.78
2022-08-17T15:36:07.828Z,2.42
2022-08-17T15:38:39.326Z,3.35
2022-08-17T15:41:09.462Z,2.53
2022-08-17T15:43:37.719Z,2.35
2022-08-17T15:46:12.087Z,2.63
2022-08-17T15:48:42.684Z,2.88
2022-08-17T15:51:21.343Z,2.97
2022-08-17T15:53:59.530Z,2.85
2022-08-17T15:56:32.749Z,3.03
2022-08-17T15:59:00.592Z,3.30
2022-08-17T16:02:21.538Z,3.10
2022-08-17T16:04:27.236Z,2.90
2022-08-17T16:06:59.704Z,2.65
2022-08-17T16:09:28.155Z,3.28
2022-08-17T16:11:56.421Z,3.70
2022-08-17T16:14:32.464Z,2.60
2022-08-17T16:17:04.599Z,3.72
2022-08-17T16:19:34.417Z,3.75
2022-08-17T16:22:02.821Z,3.05
2022-08-17T16:24:31.324Z,3.95
2022-08-17T16:26:58.990Z,3.50
2022-08-17T16:29:27.749Z,4.30
2022-08-17T16:31:56.209Z,3.33
2022-08-17T16:34:23.898Z,4.05
2022-08-17T16:36:55.953Z,3.40
2022-08-17T16:39:33.078Z,3.45
2022-08-17T16:42:02.694Z,3.63
2022-08-17T16:44:32.176Z,3.58
2022-08-17T16:47:01.367Z,3.63
2022-08-17T16:49:37.046Z,3.05
2022-08-17T16:52:10.367Z,3.80
2022-08-17T16:59:44.896Z,3.38
2022-08-17T17:02:24.889Z,4.18
2022-08-17T17:05:22.785Z,3.60
2022-08-17T17:07:58.107Z,3.88
2022-08-17T17:10:44.853Z,4.65
2022-08-17T17:13:43.353Z,3.58
2022-08-17T17:16:26.344Z,3.38
2022-08-17T17:19:04.494Z,4.15
2022-08-17T17:22:18.359Z,4.00
2022-08-17T17:25:07.354Z,4.03
2022-08-17T17:27:34.927Z,3.83
2022-08-17T17:30:15.382Z,3.90
2022-08-17T17:32:49.770Z,2.97
2022-08-17T17:35:21.815Z,3.47
2022-08-17T17:37:52.164Z,3.75
2022-08-17T17:40:37.262Z,4.35
2022-08-17T17:43:34.763Z,4.97
2022-08-17T17:46:27.815Z,5.47
2022-08-17T17:48:53.774Z,5.28
2022-08-17T17:52:07.197Z,5.70
2022-08-17T17:54:36.263Z,5.30
2022-08-17T17:57:46.943Z,5.28
2022-08-17T18:00:23.586Z,3.67
2022-08-17T18:03:18.277Z,4.50
2022-08-17T18:05:57.406Z,3.55
2022-08-17T18:08:32.232Z,3.53
2022-08-17T18:11:14.148Z,4.22
2022-08-17T18:14:23.596Z,5.05
2022-08-17T18:16:56.954Z,3.75
2022-08-17T18:19:28.193Z,3.30
2022-08-17T18:22:02.446Z,2.92
2022-08-17T18:24:37.884Z,2.28
2022-08-17T18:27:25.239Z,6.50
2022-08-17T18:29:56.098Z,2.90
2022-08-17T18:32:32.481Z,2.20
2022-08-17T18:35:08.651Z,2.20
2022-08-17T18:37:51.538Z,2.97
2022-08-17T18:40:19.846Z,2.70
2022-08-17T18:42:50.644Z,2.55
2022-08-17T18:45:46.800Z,2.83
2022-08-17T18:48:32.975Z,3.30
2022-08-17T18:51:26.310Z,2.50
2022-08-17T18:54:23.520Z,3.30
2022-08-17T18:56:53.620Z,3.17
2022-08-17T18:59:41.199Z,2.95
2022-08-17T19:05:31.763Z,2.88
2022-08-17T19:08:14.658Z,3.15
2022-08-17T19:10:47.154Z,3.23
2022-08-17T19:13:24.996Z,2.65
2022-08-17T19:16:17.790Z,3.80
2022-08-17T19:19:04.797Z,3.35
2022-08-17T19:21:37.972Z,2.40
2022-08-17T19:24:19.481Z,3.10
2022-08-17T19:26:58.743Z,2.97
2022-08-17T19:29:41.072Z,2.63
2022-08-17T19:32:11.164Z,2.83
2022-08-17T19:34:39.689Z,3.53
2022-08-17T19:37:33.239Z,3.20
2022-08-17T19:40:09.208Z,2.75
2022-08-17T19:43:01.417Z,2.63
2022-08-17T19:45:35.043Z,2.88
2022-08-17T19:48:35.539Z,3.13
2022-08-17T19:51:10.576Z,4.50
2022-08-17T19:54:06.738Z,4.78
2022-08-17T19:56:39.308Z,3.08
2022-08-17T19:59:46.545Z,4.00
2022-08-17T20:02:39.134Z,5.75
2022-08-17T20:05:15.417Z,4.35
2022-08-17T20:07:52.125Z,4.25
2022-08-17T20:10:33.137Z,4.47
2022-08-17T20:13:08.558Z,3.53
2022-08-17T20:15:40.772Z,3.28
2022-08-17T20:18:30.651Z,2.92
2022-08-17T20:21:01.827Z,3.22
2022-08-17T20:23:50.590Z,3.65
2022-08-17T20:26:28.398Z,3.35
2022-08-17T20:29:14.580Z,2.70
2022-08-17T20:31:51.171Z,2.05
2022-08-17T20:34:34.923Z,2.55
2022-08-17T20:37:25.191Z,2.60
2022-08-17T20:39:53.314Z,1.40
2022-08-17T20:42:20.848Z,1.70
2022-08-17T20:44:51.958Z,1.52
2022-08-17T20:47:27.326Z,2.70
2022-08-17T20:50:10.632Z,1.77
2022-08-17T20:52:51.845Z,1.67
2022-08-17T20:55:35.766Z,1.38
2022-08-17T20:58:23.127Z,1.75
2022-08-17T21:00:56.629Z,1.75
2022-08-17T21:03:26.993Z,2.10
2022-08-17T21:05:59.913Z,1.95
2022-08-17T21:11:56.766Z,1.73
2022-08-17T21:14:31.167Z,1.30
2022-08-17T21:17:05.850Z,1.55
2022-08-17T21:20:17.148Z,1.90
2022-08-17T21:23:25.529Z,1.75
2022-08-17T21:26:30.392Z,2.85
2022-08-17T21:29:29.759Z,2.95
2022-08-17T21:32:01.868Z,2.88
2022-08-17T21:34:31.412Z,2.42
2022-08-17T21:37:38.321Z,3.05
2022-08-17T21:40:18.585Z,2.92
2022-08-17T21:42:52.793Z,2.97
2022-08-17T21:45:28.351Z,3.03
2022-08-17T21:48:16.313Z,3.88
2022-08-17T21:51:05.867Z,3.20
2022-08-17T21:53:42.664Z,2.83
2022-08-17T21:56:13.075Z,4.80
2022-08-17T21:58:48.450Z,3.03
2022-08-17T22:01:22.167Z,3.08
2022-08-17T22:06:39.074Z,4.18
2022-08-17T22:09:14.942Z,3.42
2022-08-17T22:12:01.369Z,3.78
2022-08-17T22:14:52.867Z,4.05
2022-08-17T22:17:24.259Z,4.00
2022-08-17T22:20:03.217Z,4.18
2022-08-17T22:22:56.153Z,4.97
2022-08-17T22:25:26.906Z,5.63
2022-08-17T22:28:01.129Z,4.07
2022-08-17T22:30:41.984Z,4.00
2022-08-17T22:33:33.562Z,3.60
2022-08-17T22:36:33.648Z,5.03
2022-08-17T22:39:26.317Z,4.10
2022-08-17T22:42:00.240Z,4.10
2022-08-17T22:44:31.721Z,4.88
2022-08-17T22:47:02.107Z,4.40
2022-08-17T22:49:54.264Z,4.15
2022-08-17T22:53:02.064Z,4.10
2022-08-17T22:55:52.333Z,4.63
2022-08-17T22:58:42.467Z,4.13
2022-08-17T23:01:29.869Z,5.15
2022-08-17T23:04:04.130Z,4.80
2022-08-17T23:06:36.473Z,4.82
2022-08-17T23:09:06.385Z,4.93
2022-08-17T23:11:48.999Z,4.60
2022-08-17T23:14:20.616Z,4.82
2022-08-17T23:16:53.133Z,4.45
2022-08-17T23:19:21.913Z,4.63
2022-08-17T23:21:52.735Z,4.40
2022-08-17T23:24:25.516Z,4.85
2022-08-17T23:26:57.132Z,4.40
2022-08-17T23:29:29.323Z,4.57
2022-08-17T23:31:59.962Z,4.25
2022-08-17T23:34:28.797Z,4.50
2022-08-17T23:36:56.413Z,4.72
2022-08-17T23:39:28.203Z,4.43
2022-08-17T23:42:01.453Z,5.25
2022-08-17T23:44:31.020Z,4.10
2022-08-17T23:46:58.521Z,5.57
2022-08-17T23:49:26.118Z,4.50
2022-08-17T23:51:55.139Z,4.80
2022-08-17T23:54:33.687Z,5.07
2022-08-17T23:57:02.426Z,4.18
2022-08-17T23:59:29.996Z,4.70
